Cairo, New York
Current Conditions -  °F | °C
As of 9:51 PM on Friday 28 Nov 2014 (Local Time) from KALB Reporting Station
Few Clouds Few Clouds  
Wind Chill: 12°   Ceiling: Unl
Heat Index: 22°   Visibility: 10mi
Dew Point: 11°   Wind: 9mph
Humidity: 63%   Direction: 280°W
Pressure: 30.23"   Gusts: NA
Location:  42.31°N, 74.01°W
Report Text: KALB 290251Z 28008KT 10SM FEW045 M06/M12 A3023 RMK AO2 SLP241 60000 T10561117 53003
Loading
Personal Weather Stations






























Interactive Weather Map New forecast layout! Learn more

10-Day Weather Forecast

Advertisements
Track Severe Weather on mobile